createdAt,value
2018-07-04T00:00:13.377Z,84.00
2018-07-04T00:02:55.123Z,83.80
2018-07-04T00:05:36.418Z,82.50
2018-07-04T00:08:17.098Z,80.40
2018-07-04T00:10:58.132Z,78.60
2018-07-04T00:13:39.542Z,76.50
2018-07-04T00:16:20.441Z,75.00
2018-07-04T00:19:01.509Z,73.60
2018-07-04T00:21:42.649Z,72.40
2018-07-04T00:24:24.079Z,71.10
2018-07-04T00:27:06.076Z,69.90
2018-07-04T00:29:47.436Z,69.20
2018-07-04T00:32:28.282Z,68.80
2018-07-04T00:35:08.634Z,68.40
2018-07-04T00:37:49.390Z,68.40
2018-07-04T00:40:29.370Z,68.00
2018-07-04T00:43:10.155Z,68.20
2018-07-04T00:45:51.762Z,67.80
2018-07-04T00:48:35.635Z,67.90
2018-07-04T00:51:16.908Z,67.60
2018-07-04T00:53:58.135Z,67.60
2018-07-04T00:56:38.947Z,67.50
2018-07-04T00:59:19.894Z,67.40
2018-07-04T01:02:00.618Z,67.30
2018-07-04T01:04:41.876Z,67.10
2018-07-04T01:07:22.970Z,66.40
2018-07-04T01:10:04.966Z,66.10
2018-07-04T01:12:46.230Z,65.60
2018-07-04T01:15:26.653Z,65.50
2018-07-04T01:18:07.890Z,65.50
2018-07-04T01:20:53.291Z,65.40
2018-07-04T01:23:34.552Z,65.90
2018-07-04T01:26:15.321Z,65.60
2018-07-04T01:28:57.021Z,65.50
2018-07-04T01:31:38.347Z,65.70
2018-07-04T01:34:19.270Z,65.40
2018-07-04T01:37:01.198Z,65.50
2018-07-04T01:39:42.478Z,65.50
2018-07-04T01:42:23.922Z,65.60
2018-07-04T01:45:04.235Z,66.00
2018-07-04T01:47:45.766Z,66.10
2018-07-04T01:50:26.841Z,66.20
2018-07-04T01:53:08.638Z,66.20
2018-07-04T01:55:49.219Z,66.50
2018-07-04T01:58:30.151Z,66.70
2018-07-04T02:01:10.970Z,66.90
2018-07-04T02:03:52.245Z,67.20
2018-07-04T02:06:33.280Z,67.20
2018-07-04T02:09:15.086Z,67.40
2018-07-04T02:11:55.454Z,67.40
2018-07-04T02:14:36.778Z,67.50
2018-07-04T02:17:17.701Z,67.60
2018-07-04T02:19:58.478Z,68.10
2018-07-04T02:22:39.175Z,68.30
2018-07-04T02:25:19.953Z,68.60
2018-07-04T02:28:00.659Z,68.80
2018-07-04T02:30:41.453Z,69.20
2018-07-04T02:33:22.768Z,69.40
2018-07-04T02:36:04.959Z,69.50
2018-07-04T02:38:45.693Z,69.50
2018-07-04T02:41:26.135Z,69.50
2018-07-04T02:44:06.950Z,69.50
2018-07-04T02:46:47.735Z,69.60
2018-07-04T02:49:28.539Z,69.70
2018-07-04T02:52:09.246Z,69.70
2018-07-04T02:54:50.007Z,69.50
2018-07-04T02:57:32.410Z,69.60
2018-07-04T03:00:13.618Z,69.40
2018-07-04T03:02:54.397Z,69.70
2018-07-04T03:05:35.270Z,69.50
2018-07-04T03:08:15.917Z,69.10
2018-07-04T03:10:56.627Z,69.20
2018-07-04T03:13:37.877Z,68.90
2018-07-04T03:16:19.165Z,68.90
2018-07-04T03:19:03.018Z,68.50
2018-07-04T03:21:43.702Z,68.40
2018-07-04T03:24:24.063Z,68.10
2018-07-04T03:27:05.283Z,68.20
2018-07-04T03:29:45.911Z,67.80
2018-07-04T03:32:26.903Z,68.10
2018-07-04T03:35:07.655Z,67.40
2018-07-04T03:37:47.989Z,67.20
2018-07-04T03:40:33.341Z,67.40
2018-07-04T03:43:13.449Z,67.20
2018-07-04T03:45:54.150Z,66.40
2018-07-04T03:48:35.262Z,66.40
2018-07-04T03:51:16.391Z,66.00
2018-07-04T03:53:56.964Z,66.20
2018-07-04T03:56:37.685Z,66.40
2018-07-04T03:59:18.262Z,66.90
2018-07-04T04:02:02.323Z,66.80
2018-07-04T04:04:43.554Z,66.20
2018-07-04T04:07:24.044Z,66.00
2018-07-04T04:10:04.850Z,66.50
2018-07-04T04:12:45.954Z,66.50
2018-07-04T04:15:26.734Z,66.00
2018-07-04T04:18:08.052Z,66.20
2018-07-04T04:20:48.822Z,66.80
2018-07-04T04:23:29.690Z,66.30
2018-07-04T04:26:11.018Z,65.90
2018-07-04T04:28:51.863Z,66.20
2018-07-04T04:31:32.686Z,65.70
2018-07-04T04:34:13.851Z,65.30
2018-07-04T04:36:57.826Z,65.70
2018-07-04T04:39:39.122Z,65.20
2018-07-04T04:42:20.274Z,65.20
2018-07-04T04:45:00.702Z,65.40
2018-07-04T04:47:42.030Z,65.10
2018-07-04T04:50:22.173Z,64.80
2018-07-04T04:53:02.167Z,64.50
2018-07-04T04:55:42.136Z,65.30
2018-07-04T04:58:23.312Z,64.80
2018-07-04T05:01:04.507Z,64.10
2018-07-04T05:03:45.124Z,63.90
2018-07-04T05:06:27.799Z,63.40
2018-07-04T05:09:08.670Z,63.30
2018-07-04T05:11:49.753Z,63.60
2018-07-04T05:14:30.515Z,62.60
2018-07-04T05:17:11.794Z,62.40
2018-07-04T05:19:52.514Z,61.90
2018-07-04T05:22:33.779Z,60.50
2018-07-04T05:25:14.965Z,60.20
2018-07-04T05:27:57.042Z,59.90
2018-07-04T05:30:37.727Z,60.20
2018-07-04T05:33:18.510Z,61.10
2018-07-04T05:35:59.340Z,62.10
2018-07-04T05:38:39.956Z,62.90
2018-07-04T05:41:20.585Z,63.80
2018-07-04T05:44:01.759Z,64.30
2018-07-04T05:46:42.370Z,63.90
2018-07-04T05:49:25.650Z,64.10
2018-07-04T05:52:06.510Z,64.20
2018-07-04T05:54:47.675Z,63.80
2018-07-04T05:57:28.414Z,63.90
2018-07-04T06:00:08.657Z,63.70
2018-07-04T06:02:49.852Z,63.30
2018-07-04T06:05:29.859Z,64.40
2018-07-04T06:08:10.562Z,63.80
2018-07-04T06:10:51.858Z,64.10
2018-07-04T06:13:31.862Z,64.30
2018-07-04T06:16:12.002Z,63.80
2018-07-04T06:18:53.800Z,63.20
2018-07-04T06:21:34.848Z,63.50
2018-07-04T06:24:14.831Z,63.60
2018-07-04T06:26:55.582Z,63.70
2018-07-04T06:29:36.607Z,63.80
2018-07-04T06:32:18.705Z,63.30
2018-07-04T06:34:59.735Z,63.20
2018-07-04T06:37:47.931Z,63.40
2018-07-04T06:40:20.510Z,62.50
2018-07-04T06:42:48.578Z,62.30
2018-07-04T06:45:17.779Z,62.70
2018-07-04T06:47:46.592Z,62.30
2018-07-04T06:50:14.642Z,61.60
2018-07-04T06:52:44.155Z,61.30
2018-07-04T06:55:12.742Z,61.40
2018-07-04T06:57:41.330Z,61.80
2018-07-04T07:00:09.789Z,61.90
2018-07-04T07:02:38.510Z,61.20
2018-07-04T07:05:19.530Z,60.80
2018-07-04T07:07:59.904Z,61.20
2018-07-04T07:10:40.581Z,61.10
2018-07-04T07:13:21.492Z,61.50
2018-07-04T07:16:04.582Z,61.30
2018-07-04T07:18:45.390Z,60.80
2018-07-04T07:21:25.751Z,60.30
2018-07-04T07:24:06.558Z,60.50
2018-07-04T07:26:47.509Z,60.70
2018-07-04T07:29:28.279Z,59.80
2018-07-04T07:32:09.597Z,59.90
2018-07-04T07:34:51.002Z,60.10
2018-07-04T07:37:32.243Z,59.60
2018-07-04T07:40:13.066Z,59.40
2018-07-04T07:42:53.951Z,59.10
2018-07-04T07:45:34.431Z,59.00
2018-07-04T07:48:15.328Z,58.10
2018-07-04T07:50:55.700Z,57.70
2018-07-04T07:53:36.990Z,57.70
2018-07-04T07:56:19.290Z,57.40
2018-07-04T07:59:01.242Z,57.60
2018-07-04T08:01:42.052Z,57.20
2018-07-04T08:04:22.749Z,57.60
2018-07-04T08:07:03.454Z,57.20
2018-07-04T08:09:44.438Z,58.30
2018-07-04T08:12:24.694Z,56.90
2018-07-04T08:15:05.419Z,57.10
2018-07-04T08:17:47.059Z,57.40
2018-07-04T08:20:27.214Z,56.60
2018-07-04T08:23:08.116Z,56.20
2018-07-04T08:25:49.423Z,56.20
2018-07-04T08:28:29.603Z,56.10
2018-07-04T08:31:10.447Z,56.80
2018-07-04T08:33:51.602Z,55.80
2018-07-04T08:36:32.443Z,55.40
2018-07-04T08:39:18.870Z,55.90
2018-07-04T08:42:00.113Z,55.50
2018-07-04T08:44:41.246Z,55.70
2018-07-04T08:47:21.963Z,55.50
2018-07-04T08:50:03.520Z,55.00
2018-07-04T08:52:44.711Z,55.20
2018-07-04T08:55:25.357Z,55.10
2018-07-04T08:58:06.159Z,54.70
2018-07-04T09:00:49.182Z,54.80
2018-07-04T09:03:30.246Z,54.50
2018-07-04T09:06:11.284Z,54.40
2018-07-04T09:08:52.490Z,54.30
2018-07-04T09:11:33.329Z,54.50
2018-07-04T09:14:14.512Z,54.10
2018-07-04T09:16:54.478Z,54.00
2018-07-04T09:19:34.505Z,53.90
2018-07-04T09:22:15.205Z,53.50
2018-07-04T09:24:55.442Z,53.80
2018-07-04T09:27:36.236Z,53.60
2018-07-04T09:30:17.369Z,53.20
2018-07-04T09:32:56.907Z,52.80
2018-07-04T09:35:37.867Z,52.70
2018-07-04T09:38:19.050Z,52.90
2018-07-04T09:41:00.242Z,53.20
2018-07-04T09:43:42.311Z,52.70
2018-07-04T09:46:24.342Z,52.40
2018-07-04T09:49:05.435Z,52.50
2018-07-04T09:51:46.239Z,53.00
2018-07-04T09:54:27.444Z,52.90
2018-07-04T09:57:08.142Z,52.80
2018-07-04T09:59:49.200Z,52.00
2018-07-04T10:02:29.384Z,53.10
2018-07-04T10:05:10.036Z,52.10
2018-07-04T10:07:50.302Z,52.20
2018-07-04T10:10:31.104Z,52.20
2018-07-04T10:13:11.534Z,52.30
2018-07-04T10:15:52.277Z,52.60
2018-07-04T10:18:33.222Z,51.90
2018-07-04T10:21:14.109Z,51.50
2018-07-04T10:23:54.522Z,51.60
2018-07-04T10:26:36.000Z,52.30
2018-07-04T10:29:16.476Z,51.50
2018-07-04T10:31:57.274Z,51.70
2018-07-04T10:34:38.102Z,51.70
2018-07-04T10:37:19.591Z,52.00
2018-07-04T10:40:00.359Z,51.70
2018-07-04T10:42:42.240Z,51.10
2018-07-04T10:45:22.932Z,51.10
2018-07-04T10:48:03.163Z,51.00
2018-07-04T10:50:43.514Z,52.00
2018-07-04T10:53:24.755Z,51.30
2018-07-04T10:56:05.203Z,51.30
2018-07-04T10:58:45.879Z,51.10
2018-07-04T11:01:27.065Z,51.40
2018-07-04T11:04:09.126Z,51.60
2018-07-04T11:06:49.933Z,51.50
2018-07-04T11:09:30.780Z,51.40
2018-07-04T11:12:11.070Z,51.70
2018-07-04T11:14:51.358Z,51.30
2018-07-04T11:17:30.880Z,50.70
2018-07-04T11:20:11.701Z,50.60
2018-07-04T11:22:52.436Z,49.40
2018-07-04T11:25:33.876Z,49.80
2018-07-04T11:28:14.750Z,49.50
2018-07-04T11:30:55.434Z,50.10
2018-07-04T11:33:36.138Z,50.00
2018-07-04T11:36:18.271Z,50.00
2018-07-04T11:38:59.558Z,50.10
2018-07-04T11:41:40.198Z,49.10
2018-07-04T11:44:20.871Z,49.20
2018-07-04T11:46:49.872Z,48.00
2018-07-04T11:49:18.815Z,48.10
2018-07-04T11:51:47.421Z,48.70
2018-07-04T11:54:15.937Z,48.50
2018-07-04T11:56:44.818Z,48.70
2018-07-04T11:59:13.811Z,49.20
2018-07-04T12:01:42.331Z,48.20
2018-07-04T12:04:22.978Z,49.00
2018-07-04T12:07:10.133Z,48.40
2018-07-04T12:09:42.975Z,48.10
2018-07-04T12:12:11.588Z,47.90
2018-07-04T12:14:40.899Z,48.00
2018-07-04T12:17:09.500Z,48.40
2018-07-04T12:19:37.958Z,48.20
2018-07-04T12:22:05.988Z,48.30
2018-07-04T12:24:34.494Z,48.10
2018-07-04T12:27:02.944Z,47.20
2018-07-04T12:29:31.899Z,47.10
2018-07-04T12:32:00.894Z,46.60
2018-07-04T12:37:22.771Z,46.60
2018-07-04T12:39:51.114Z,47.10
2018-07-04T12:42:21.053Z,47.90
2018-07-04T12:44:48.722Z,47.40
2018-07-04T12:47:17.006Z,47.50
2018-07-04T12:49:45.821Z,47.20
2018-07-04T12:52:14.795Z,47.20
2018-07-04T12:54:47.952Z,47.50
2018-07-04T12:57:28.939Z,46.90
2018-07-04T13:00:10.022Z,47.30
2018-07-04T13:02:52.094Z,47.40
2018-07-04T13:05:32.802Z,47.00
2018-07-04T13:08:13.743Z,45.90
2018-07-04T13:10:54.019Z,46.50
2018-07-04T13:13:34.727Z,45.60
2018-07-04T13:16:15.621Z,45.60
2018-07-04T13:18:56.298Z,45.20
2018-07-04T13:21:37.506Z,45.40
2018-07-04T13:24:18.067Z,45.70
2018-07-04T13:26:59.110Z,46.00
2018-07-04T13:29:39.858Z,45.40
2018-07-04T13:32:23.834Z,44.90
2018-07-04T13:35:04.879Z,44.30
2018-07-04T13:37:45.558Z,44.30
2018-07-04T13:40:30.005Z,45.00
2018-07-04T13:43:10.863Z,44.80
2018-07-04T13:48:52.778Z,44.50
2018-07-04T13:51:34.049Z,44.60
2018-07-04T13:54:15.071Z,43.90
2018-07-04T13:56:56.438Z,44.10
2018-07-04T13:59:37.875Z,44.00
2018-07-04T14:02:18.362Z,43.90
2018-07-04T14:04:59.257Z,43.50
2018-07-04T14:07:46.661Z,43.60
2018-07-04T14:10:27.660Z,43.50
2018-07-04T14:13:08.205Z,43.40
2018-07-04T14:15:49.222Z,43.80
2018-07-04T14:18:29.797Z,44.30
2018-07-04T14:21:10.671Z,44.30
2018-07-04T14:23:52.563Z,44.50
2018-07-04T14:26:33.901Z,43.50
2018-07-04T14:29:16.733Z,42.50
2018-07-04T14:31:57.594Z,43.50
2018-07-04T14:34:37.783Z,43.10
2018-07-04T14:37:18.539Z,42.90
2018-07-04T14:39:58.745Z,42.20
2018-07-04T14:42:39.362Z,42.80
2018-07-04T14:45:20.556Z,42.40
2018-07-04T14:48:01.905Z,42.40
2018-07-04T14:50:44.532Z,42.00
2018-07-04T14:53:25.673Z,42.30
2018-07-04T14:56:06.089Z,42.00
2018-07-04T14:58:47.446Z,42.00
2018-07-04T15:01:28.526Z,41.80
2018-07-04T15:04:09.427Z,41.20
2018-07-04T15:06:50.527Z,41.20
2018-07-04T15:09:31.743Z,41.20
2018-07-04T15:12:17.539Z,40.90
2018-07-04T15:14:58.716Z,40.70
2018-07-04T15:17:39.466Z,40.40
2018-07-04T15:20:20.062Z,40.40
2018-07-04T15:23:00.779Z,40.80
2018-07-04T15:25:41.319Z,40.60
2018-07-04T15:28:22.569Z,40.70
2018-07-04T15:31:03.898Z,41.00
2018-07-04T15:36:36.980Z,40.90
2018-07-04T15:39:17.671Z,40.70
2018-07-04T15:41:58.296Z,40.70
2018-07-04T15:44:39.455Z,43.90
2018-07-04T15:47:20.349Z,45.10
2018-07-04T15:50:01.037Z,45.40
2018-07-04T15:52:42.255Z,45.30
2018-07-04T15:55:23.073Z,45.80
2018-07-04T15:58:07.522Z,45.40
2018-07-04T16:00:48.396Z,45.40
2018-07-04T16:03:29.789Z,45.00
2018-07-04T16:06:09.999Z,45.90
2018-07-04T16:08:50.731Z,43.40
2018-07-04T16:11:30.765Z,40.10
2018-07-04T16:14:12.190Z,40.20
2018-07-04T16:16:52.800Z,41.60
2018-07-04T16:19:34.317Z,41.40
2018-07-04T16:22:14.542Z,39.40
2018-07-04T16:24:54.659Z,38.20
2018-07-04T16:27:35.691Z,37.00
2018-07-04T16:30:16.325Z,35.30
2018-07-04T16:32:57.187Z,34.10
2018-07-04T16:35:38.603Z,33.60
2018-07-04T16:38:19.382Z,33.20
2018-07-04T16:41:04.154Z,32.80
2018-07-04T16:43:45.478Z,32.20
2018-07-04T16:46:26.363Z,31.90
2018-07-04T16:49:07.279Z,32.70
2018-07-04T16:51:48.419Z,33.40
2018-07-04T16:54:29.235Z,33.50
2018-07-04T16:57:10.195Z,32.70
2018-07-04T16:59:51.397Z,35.10
2018-07-04T17:02:32.640Z,35.50
2018-07-04T17:05:13.350Z,34.50
2018-07-04T17:07:54.276Z,33.80
2018-07-04T17:10:35.133Z,32.40
2018-07-04T17:13:15.616Z,31.20
2018-07-04T17:15:58.244Z,30.20
2018-07-04T17:18:39.331Z,30.00
2018-07-04T17:21:20.161Z,30.00
2018-07-04T17:24:02.237Z,30.00
2018-07-04T17:26:43.044Z,29.40
2018-07-04T17:29:24.413Z,29.30
2018-07-04T17:32:05.239Z,30.20
2018-07-04T17:34:46.528Z,30.00
2018-07-04T17:37:28.159Z,29.80
2018-07-04T17:55:08.415Z,29.90
2018-07-04T17:57:49.174Z,29.40
2018-07-04T18:03:33.042Z,29.80
2018-07-04T18:06:13.291Z,30.50
2018-07-04T18:14:49.247Z,30.40
2018-07-04T18:17:30.553Z,31.40
2018-07-04T18:32:30.435Z,42.30
2018-07-04T18:35:11.445Z,44.70
2018-07-04T18:37:53.264Z,46.30
2018-07-04T18:40:34.370Z,47.60
2018-07-04T18:43:15.946Z,48.50
2018-07-04T18:45:57.045Z,49.40
2018-07-04T18:48:38.537Z,50.10
2018-07-04T18:51:19.606Z,50.90
2018-07-04T18:54:00.865Z,51.50
2018-07-04T18:56:41.703Z,52.10
2018-07-04T18:59:23.039Z,52.70
2018-07-04T19:02:03.855Z,53.20
2018-07-04T19:04:44.165Z,53.20
2018-07-04T19:07:25.134Z,53.80
2018-07-04T19:10:06.074Z,54.20
2018-07-04T19:12:46.861Z,54.60
2018-07-04T19:15:29.886Z,54.90
2018-07-04T19:18:10.958Z,55.60
2018-07-04T19:20:51.446Z,56.10
2018-07-04T19:23:32.724Z,56.90
2018-07-04T19:26:13.742Z,57.20
2018-07-04T19:28:54.796Z,57.50
2018-07-04T19:31:36.106Z,58.00
2018-07-04T19:34:17.604Z,58.60
2018-07-04T19:37:05.103Z,58.80
2018-07-04T19:39:46.375Z,59.10
2018-07-04T19:42:27.489Z,59.40
2018-07-04T19:45:08.997Z,59.40
2018-07-04T19:47:51.079Z,59.70
2018-07-04T19:50:33.827Z,60.00
2018-07-04T19:53:15.589Z,60.20
2018-07-04T19:55:57.287Z,60.00
2018-07-04T19:58:46.195Z,60.20
2018-07-04T20:01:30.046Z,60.60
2018-07-04T20:04:12.435Z,60.60
2018-07-04T20:06:53.422Z,61.00
2018-07-04T20:09:34.625Z,61.10
2018-07-04T20:12:15.740Z,61.60
2018-07-04T20:14:57.292Z,61.60
2018-07-04T20:17:39.212Z,62.40
2018-07-04T20:20:20.206Z,62.80
2018-07-04T20:23:01.186Z,63.20
2018-07-04T20:25:42.656Z,63.80
2018-07-04T20:28:23.455Z,64.40
2018-07-04T20:31:04.916Z,64.50
2018-07-04T20:33:46.423Z,65.00
2018-07-04T20:36:27.358Z,65.00
2018-07-04T20:39:08.033Z,65.60
2018-07-04T20:41:51.637Z,66.20
2018-07-04T20:44:34.007Z,66.30
2018-07-04T20:47:15.059Z,66.00
2018-07-04T20:49:56.267Z,67.00
2018-07-04T20:52:37.273Z,67.30
2018-07-04T20:55:17.828Z,67.70
2018-07-04T20:57:59.200Z,68.20
2018-07-04T21:00:40.130Z,68.50
2018-07-04T21:03:21.181Z,69.30
2018-07-04T21:06:02.195Z,69.60
2018-07-04T21:08:43.186Z,70.40
2018-07-04T21:11:24.002Z,71.00
2018-07-04T21:14:04.805Z,71.00
2018-07-04T21:16:46.011Z,71.30
2018-07-04T21:19:27.366Z,72.20
2018-07-04T21:22:08.631Z,72.80
2018-07-04T21:24:51.690Z,73.40
2018-07-04T21:27:32.976Z,74.10
2018-07-04T21:30:14.328Z,74.80
2018-07-04T21:32:54.963Z,75.60
2018-07-04T21:35:35.496Z,75.90
2018-07-04T21:38:16.191Z,76.20
2018-07-04T21:40:57.014Z,76.60
2018-07-04T21:43:37.742Z,77.00
2018-07-04T21:46:21.726Z,77.40
2018-07-04T21:49:03.330Z,77.50
2018-07-04T21:51:44.159Z,77.80
2018-07-04T21:54:24.367Z,78.20
2018-07-04T21:57:05.135Z,78.60
2018-07-04T21:59:45.864Z,79.00
2018-07-04T22:02:26.715Z,79.30
2018-07-04T22:05:07.485Z,79.60
2018-07-04T22:07:48.618Z,80.20
2018-07-04T22:10:29.181Z,80.20
2018-07-04T22:13:10.430Z,80.30
2018-07-04T22:15:51.090Z,80.80
2018-07-04T22:18:32.827Z,80.90
2018-07-04T22:21:13.771Z,81.10
2018-07-04T22:23:54.674Z,81.30
2018-07-04T22:26:36.847Z,81.80
2018-07-04T22:29:18.197Z,82.10
2018-07-04T22:31:59.427Z,82.10
2018-07-04T22:34:40.122Z,82.30
2018-07-04T22:37:20.835Z,82.40
2018-07-04T22:40:01.532Z,82.80
2018-07-04T22:42:42.734Z,83.10
2018-07-04T22:45:24.150Z,83.40
2018-07-04T22:48:04.795Z,83.80
2018-07-04T22:50:46.524Z,83.80
2018-07-04T22:53:27.180Z,84.10
2018-07-04T22:56:08.028Z,83.70
2018-07-04T22:58:48.944Z,83.90
2018-07-04T23:01:30.789Z,84.20
2018-07-04T23:04:11.443Z,84.80
2018-07-04T23:06:52.779Z,85.00
2018-07-04T23:09:33.975Z,85.20
2018-07-04T23:12:14.966Z,85.10
2018-07-04T23:14:55.823Z,85.10
2018-07-04T23:17:36.674Z,85.10
2018-07-04T23:20:17.371Z,84.80
2018-07-04T23:22:59.414Z,84.90
2018-07-04T23:25:40.040Z,84.70
2018-07-04T23:28:20.872Z,84.90
2018-07-04T23:33:48.755Z,84.80
2018-07-04T23:36:29.061Z,84.70
2018-07-04T23:39:09.891Z,84.60
2018-07-04T23:41:50.724Z,84.60
2018-07-04T23:44:32.294Z,84.50
2018-07-04T23:47:12.995Z,84.60
2018-07-04T23:49:53.787Z,84.40
2018-07-04T23:52:34.894Z,84.20
2018-07-04T23:55:19.474Z,84.40
2018-07-04T23:58:00.656Z,84.40
